Time;durP1;ratioP1;P1;durP2;ratioP2;P2;SDS_P1;SDS_P2;PMS_P1;PMS_P2;Temp;Humidity;BMP_temperature;BMP_pressure;BME280_temperature;BME280_humidity;BME280_pressure;Samples;Min_cycle;Max_cycle;Signal;HPM_P1;HPM_P2
2023/09/08 00:01:10;;;;;;;10.45;7.18;;;;;;;18.22;100.00;100645.97;5035185;28;20398;-74
2023/09/08 00:03:39;;;;;;;8.88;6.97;;;;;;;18.10;100.00;100650.41;5015616;28;20095;-73
2023/09/08 00:06:08;;;;;;;12.13;6.80;;;;;;;18.11;100.00;100641.41;5042117;28;20060;-73
2023/09/08 00:08:36;;;;;;;8.07;7.07;;;;;;;18.08;100.00;100638.97;5023965;28;20050;-74
2023/09/08 00:11:07;;;;;;;9.07;7.32;;;;;;;18.10;100.00;100644.22;5025971;28;20050;-74
2023/09/08 00:13:36;;;;;;;7.32;6.57;;;;;;;18.09;100.00;100639.84;5032713;28;20513;-74
2023/09/08 00:16:06;;;;;;;8.50;6.57;;;;;;;18.03;100.00;100632.25;5025190;28;20056;-73
2023/09/08 00:18:35;;;;;;;6.80;6.13;;;;;;;18.06;100.00;100640.91;5016339;28;20073;-74
2023/09/08 00:21:05;;;;;;;11.15;6.68;;;;;;;17.97;100.00;100624.63;5032357;28;20126;-74
2023/09/08 00:23:33;;;;;;;9.27;6.68;;;;;;;17.98;100.00;100632.56;5030331;28;20049;-73
2023/09/08 00:26:03;;;;;;;8.25;6.78;;;;;;;18.03;100.00;100641.13;5025316;28;20099;-73
2023/09/08 00:28:37;;;;;;;9.57;6.88;;;;;;;17.95;100.00;100635.47;5031716;28;20549;-73
2023/09/08 00:31:06;;;;;;;7.90;6.85;;;;;;;17.96;100.00;100628.28;5044898;28;20462;-73
2023/09/08 00:33:33;;;;;;;9.57;7.25;;;;;;;17.86;100.00;100612.03;5011641;28;20132;-74
2023/09/08 00:36:02;;;;;;;7.40;6.60;;;;;;;17.97;100.00;100636.22;5031158;28;20046;-73
2023/09/08 00:38:34;;;;;;;7.40;6.60;;;;;;;17.90;100.00;100628.75;5038689;28;20037;-73
2023/09/08 00:41:02;;;;;;;9.40;6.45;;;;;;;17.88;100.00;100624.38;5035977;28;20056;-74
2023/09/08 00:43:30;;;;;;;8.57;6.43;;;;;;;17.90;100.00;100634.97;5047686;28;20038;-73
2023/09/08 00:46:00;;;;;;;10.13;6.57;;;;;;;17.88;100.00;100623.50;5045433;28;20046;-74
2023/09/08 00:48:30;;;;;;;9.75;6.90;;;;;;;17.91;100.00;100633.16;5037524;28;20064;-73
2023/09/08 00:50:58;;;;;;;9.93;6.88;;;;;;;17.85;100.00;100616.56;5038168;28;20099;-73
2023/09/08 00:53:27;;;;;;;10.68;7.07;;;;;;;17.85;100.00;100619.22;5048242;28;20498;-74
2023/09/08 00:55:57;;;;;;;9.52;6.43;;;;;;;17.83;100.00;100613.13;5021968;28;20073;-74
2023/09/08 00:58:25;;;;;;;;;;;;;;;17.83;100.00;100620.31;5026077;28;20482;-74
2023/09/08 01:00:57;;;;;;;9.05;6.63;;;;;;;17.79;100.00;100611.63;5035635;28;19925;-73
2023/09/08 01:03:25;;;;;;;8.20;6.50;;;;;;;17.78;100.00;100620.66;5012253;28;20092;-73
2023/09/08 01:05:56;;;;;;;7.75;6.47;;;;;;;17.82;100.00;100622.13;5027277;28;20049;-74
2023/09/08 01:08:25;;;;;;;9.43;6.45;;;;;;;17.75;100.00;100618.19;5042103;28;20045;-76
2023/09/08 01:10:53;;;;;;;9.57;6.82;;;;;;;17.77;100.00;100618.94;5030584;28;20367;-73
2023/09/08 01:13:23;;;;;;;9.23;7.03;;;;;;;17.81;100.00;100632.94;5030726;28;20042;-73
2023/09/08 01:15:51;;;;;;;9.57;6.72;;;;;;;17.77;100.00;100634.16;5055313;28;20087;-73
2023/09/08 01:18:22;;;;;;;8.93;7.07;;;;;;;17.76;100.00;100633.31;5040732;28;20073;-73
2023/09/08 01:21:20;;;;;;;11.52;6.68;;;;;;;17.84;100.00;100638.94;5041760;28;20041;-73
2023/09/08 01:24:02;;;;;;;7.65;6.55;;;;;;;17.88;100.00;100636.91;5050978;28;20345;-73
2023/09/08 01:26:37;;;;;;;8.43;6.63;;;;;;;17.85;100.00;100637.97;5039038;28;20045;-73
2023/09/08 01:29:06;;;;;;;8.68;7.32;;;;;;;17.75;100.00;100626.25;5049284;28;20141;-75
2023/09/08 01:31:35;;;;;;;8.82;7.35;;;;;;;17.82;100.00;100638.19;5034582;28;20038;-74
2023/09/08 01:34:06;;;;;;;9.45;7.35;;;;;;;17.80;100.00;100637.44;5034144;28;20072;-73
2023/09/08 01:36:35;;;;;;;8.98;6.57;;;;;;;17.81;100.00;100639.16;5044798;28;20543;-73
2023/09/08 01:39:04;;;;;;;8.90;7.53;;;;;;;17.78;100.00;100636.75;5025408;28;20047;-73
2023/09/08 01:41:33;;;;;;;12.85;7.72;;;;;;;17.75;100.00;100628.06;5038874;28;20025;-73
2023/09/08 01:44:05;;;;;;;14.38;7.57;;;;;;;17.73;100.00;100638.88;5048745;28;20056;-73
2023/09/08 01:46:35;;;;;;;10.95;6.50;;;;;;;17.68;100.00;100626.78;5044453;28;20706;-73
2023/09/08 01:49:03;;;;;;;10.82;6.65;;;;;;;17.71;100.00;100631.91;5035927;28;20096;-73
2023/09/08 01:51:33;;;;;;;10.02;6.80;;;;;;;17.69;100.00;100631.19;5025984;28;20076;-73
2023/09/08 01:54:02;;;;;;;7.32;6.47;;;;;;;17.55;100.00;100605.38;5021140;28;20073;-74
2023/09/08 01:56:32;;;;;;;8.52;6.85;;;;;;;17.67;100.00;100628.59;5039774;28;20403;-73
2023/09/08 01:59:05;;;;;;;11.98;7.10;;;;;;;17.62;100.00;100625.41;5041454;28;20046;-73
2023/09/08 02:01:33;;;;;;;8.55;6.95;;;;;;;17.60;100.00;100627.31;5025591;28;20045;-73
2023/09/08 02:04:01;;;;;;;10.27;7.03;;;;;;;17.61;100.00;100626.34;5033358;28;20045;-73
2023/09/08 02:06:29;;;;;;;8.40;7.10;;;;;;;17.65;100.00;100635.03;5042136;28;20521;-74
2023/09/08 02:08:57;;;;;;;10.48;7.15;;;;;;;17.59;100.00;100622.06;5036143;28;20060;-74
2023/09/08 02:11:26;;;;;;;9.32;6.65;;;;;;;17.49;100.00;100613.84;5020625;28;20061;-74
2023/09/08 02:13:55;;;;;;;7.20;6.50;;;;;;;17.52;100.00;100624.31;5034495;28;20042;-73
2023/09/08 02:16:25;;;;;;;8.68;7.18;;;;;;;17.39;100.00;100607.44;5040763;28;20068;-73
2023/09/08 02:18:53;;;;;;;7.43;5.95;;;;;;;17.46;100.00;100616.75;5038822;28;20052;-74
2023/09/08 02:21:22;;;;;;;10.63;6.88;;;;;;;17.42;100.00;100617.94;5039446;28;20105;-73
2023/09/08 02:23:50;;;;;;;9.07;7.10;;;;;;;17.42;100.00;100612.59;5037280;28;20076;-73
2023/09/08 02:26:19;;;;;;;8.60;6.55;;;;;;;17.42;100.00;100626.81;5026371;28;20072;-74
2023/09/08 02:28:47;;;;;;;9.80;6.70;;;;;;;17.39;100.00;100616.31;5034533;28;20069;-73
2023/09/08 02:31:18;;;;;;;8.10;6.45;;;;;;;17.42;100.00;100617.94;5045113;28;20033;-73
2023/09/08 02:33:46;;;;;;;6.88;6.18;;;;;;;17.39;100.00;100620.81;5035611;28;20046;-74
2023/09/08 02:36:14;;;;;;;7.32;6.60;;;;;;;17.42;100.00;100629.50;5038085;28;20049;-74
2023/09/08 02:38:42;;;;;;;9.02;6.55;;;;;;;17.41;100.00;100618.91;5033630;28;20064;-73
2023/09/08 02:41:10;;;;;;;7.80;6.68;;;;;;;17.42;100.00;100629.50;5037573;28;20056;-73
2023/09/08 02:43:39;;;;;;;7.53;6.32;;;;;;;17.41;100.00;100627.78;5032144;28;20185;-74
2023/09/08 02:46:09;;;;;;;8.57;7.00;;;;;;;17.36;100.00;100621.03;5032139;28;20129;-74
2023/09/08 02:48:39;;;;;;;;;;;;;;;17.39;100.00;100628.84;5027153;28;20101;-74
2023/09/08 02:51:07;;;;;;;7.22;6.47;;;;;;;17.35;100.00;100625.53;5030376;28;19971;-73
2023/09/08 02:53:35;;;;;;;8.45;6.25;;;;;;;17.37;100.00;100628.09;5029635;28;20678;-74
2023/09/08 02:56:05;;;;;;;8.45;6.50;;;;;;;17.35;100.00;100633.56;5022283;28;20045;-75
2023/09/08 02:58:34;;;;;;;7.65;6.38;;;;;;;17.34;100.00;100626.50;5013330;28;20045;-74
2023/09/08 03:01:14;;;;;;;7.72;6.47;;;;;;;17.30;100.00;100622.34;5051477;28;20046;-73
2023/09/08 03:03:51;;;;;;;8.98;6.53;;;;;;;17.33;100.00;100627.47;5049860;28;20044;-73
2023/09/08 03:06:21;;;;;;;9.45;6.53;;;;;;;17.33;100.00;100621.25;5024932;28;20041;-74
2023/09/08 03:08:50;;;;;;;7.47;6.65;;;;;;;17.32;100.00;100619.53;5044557;28;20052;-74
2023/09/08 03:11:18;;;;;;;9.65;6.40;;;;;;;17.28;100.00;100621.59;5039603;28;20045;-73
2023/09/08 03:13:47;;;;;;;8.77;6.68;;;;;;;17.24;100.00;100624.59;5031032;28;20042;-73
2023/09/08 03:16:15;;;;;;;10.77;6.47;;;;;;;17.23;100.00;100625.56;5012810;28;20136;-74
2023/09/08 03:18:44;;;;;;;10.25;6.75;;;;;;;17.15;100.00;100626.97;5026552;28;20034;-72
2023/09/08 03:21:15;;;;;;;10.60;6.90;;;;;;;17.13;100.00;100625.38;5003497;28;20053;-74
2023/09/08 03:23:46;;;;;;;9.20;6.68;;;;;;;17.02;100.00;100619.88;5026703;28;20091;-75
2023/09/08 03:26:16;;;;;;;8.57;6.45;;;;;;;17.06;100.00;100624.94;5012633;28;20044;-74
2023/09/08 03:28:44;;;;;;;7.60;6.28;;;;;;;17.06;100.00;100627.59;5021847;28;20052;-73
2023/09/08 03:31:12;;;;;;;8.93;6.40;;;;;;;16.89;100.00;100600.31;5017686;28;20053;-75
2023/09/08 03:33:42;;;;;;;9.45;6.18;;;;;;;17.06;100.00;100622.25;5022365;28;20446;-75
2023/09/08 03:36:12;;;;;;;8.38;6.45;;;;;;;17.06;100.00;100626.75;5012907;28;20099;-73
2023/09/08 03:38:41;;;;;;;8.45;6.07;;;;;;;17.02;100.00;100615.41;5027437;28;20125;-73
2023/09/08 03:41:09;;;;;;;8.18;5.82;;;;;;;17.00;100.00;100617.31;5037515;28;20051;-73
2023/09/08 03:43:37;;;;;;;6.95;6.05;;;;;;;17.04;100.00;100624.19;5010407;28;20081;-73
2023/09/08 03:46:05;;;;;;;7.53;6.60;;;;;;;17.06;100.00;100616.03;5026882;28;20554;-74
2023/09/08 03:48:33;;;;;;;8.68;6.15;;;;;;;17.08;100.00;100616.78;5026099;28;20066;-74
2023/09/08 03:51:01;;;;;;;6.47;5.82;;;;;;;17.12;100.00;100620.97;5029468;28;20697;-74
2023/09/08 03:53:31;;;;;;;7.45;5.47;;;;;;;17.10;100.00;100622.91;5022349;28;20025;-72
2023/09/08 03:56:03;;;;;;;6.40;5.70;;;;;;;17.07;100.00;100621.28;4999748;28;20046;-73
2023/09/08 03:58:31;;;;;;;8.73;6.27;;;;;;;17.07;100.00;100620.44;5029248;28;20052;-74
2023/09/08 04:01:00;;;;;;;7.95;6.18;;;;;;;17.06;100.00;100627.59;5042539;28;20480;-74
2023/09/08 04:03:29;;;;;;;9.30;6.13;;;;;;;17.03;100.00;100627.81;5024832;28;20045;-74
2023/09/08 04:05:59;;;;;;;11.77;6.22;;;;;;;16.98;100.00;100632.66;5017118;28;20037;-74
2023/09/08 04:08:27;;;;;;;7.05;5.78;;;;;;;16.95;100.00;100629.31;5024555;28;20056;-73
2023/09/08 04:10:57;;;;;;;8.35;6.00;;;;;;;16.91;100.00;100634.03;5021518;28;20060;-74
2023/09/08 04:13:29;;;;;;;7.00;5.85;;;;;;;16.88;100.00;100633.38;5028130;28;20081;-72
2023/09/08 04:15:57;;;;;;;8.30;6.25;;;;;;;16.83;100.00;100636.38;5018089;28;20052;-74
2023/09/08 04:18:27;;;;;;;8.95;6.35;;;;;;;16.83;100.00;100644.41;4988910;28;20233;-75
2023/09/08 04:20:55;;;;;;;7.65;6.10;;;;;;;16.74;100.00;100637.00;5030555;28;20046;-75
2023/09/08 04:23:26;;;;;;;9.40;6.90;;;;;;;16.71;100.00;100638.06;5005748;28;20767;-73
2023/09/08 04:25:58;;;;;;;7.22;5.82;;;;;;;16.71;100.00;100645.22;5001675;28;20049;-73
2023/09/08 04:28:26;;;;;;;7.63;5.60;;;;;;;16.68;100.00;100649.00;5022865;28;20061;-74
2023/09/08 04:30:54;;;;;;;6.88;6.10;;;;;;;16.65;100.00;100643.84;5030281;28;20045;-74
2023/09/08 04:33:25;;;;;;;7.53;6.30;;;;;;;16.63;100.00;100651.13;5037411;28;20063;-74
2023/09/08 04:36:01;;;;;;;10.68;6.72;;;;;;;16.60;100.00;100637.06;5029375;28;20057;-74
2023/09/08 04:38:29;;;;;;;7.57;6.00;;;;;;;16.55;100.00;100628.47;5030082;28;20478;-73
2023/09/08 04:40:59;;;;;;;8.15;6.72;;;;;;;16.70;100.00;100652.41;5029166;28;20124;-74
2023/09/08 04:43:28;;;;;;;8.32;6.75;;;;;;;16.76;100.00;100654.66;5024258;28;20410;-73
2023/09/08 04:45:57;;;;;;;7.90;6.35;;;;;;;16.77;100.00;100650.16;5019830;28;20060;-74
2023/09/08 04:48:25;;;;;;;9.85;6.75;;;;;;;16.81;100.00;100654.34;5015999;28;20121;-73
2023/09/08 04:50:57;;;;;;;7.15;6.45;;;;;;;16.82;100.00;100658.75;5027516;28;20045;-73
2023/09/08 04:53:26;;;;;;;7.57;5.90;;;;;;;16.77;100.00;100652.84;5022852;28;20428;-73
2023/09/08 04:55:54;;;;;;;7.63;6.38;;;;;;;16.78;100.00;100657.22;5016258;28;20079;-74
2023/09/08 04:58:27;;;;;;;9.35;6.60;;;;;;;16.76;100.00;100660.00;5023589;28;20038;-74
2023/09/08 05:00:57;;;;;;;6.78;5.97;;;;;;;16.83;100.00;100660.47;5023811;28;20064;-73
2023/09/08 05:03:27;;;;;;;9.52;6.03;;;;;;;16.87;100.00;100667.28;5033833;28;20076;-74
2023/09/08 05:05:55;;;;;;;10.88;6.75;;;;;;;16.88;100.00;100662.78;5022933;28;20413;-74
2023/09/08 05:08:23;;;;;;;9.00;6.47;;;;;;;16.89;100.00;100665.38;5031071;28;20072;-73
2023/09/08 05:10:51;;;;;;;9.82;5.68;;;;;;;16.97;100.00;100672.88;5030205;28;20157;-74
2023/09/08 05:13:20;;;;;;;7.95;6.30;;;;;;;16.97;100.00;100671.06;5045912;28;20049;-74
2023/09/08 05:16:10;;;;;;;7.25;5.28;;;;;;;16.99;100.00;100676.31;5021652;28;20111;-73
2023/09/08 05:18:43;;;;;;;8.93;6.55;;;;;;;16.94;100.00;100662.38;5034748;28;20165;-73
2023/09/08 05:21:14;;;;;;;8.43;6.07;;;;;;;17.06;100.00;100675.75;5053148;28;20772;-74
2023/09/08 05:23:46;;;;;;;10.63;7.07;;;;;;;16.99;100.00;100660.25;5046645;28;20150;-73
2023/09/08 05:26:15;;;;;;;8.27;5.75;;;;;;;17.10;100.00;100671.91;5035563;28;20033;-75
2023/09/08 05:28:45;;;;;;;8.88;6.40;;;;;;;17.11;100.00;100679.00;5045026;28;20038;-74
2023/09/08 05:31:14;;;;;;;10.27;6.32;;;;;;;17.08;100.00;100671.16;5040223;28;20045;-74
2023/09/08 05:33:46;;;;;;;6.22;5.60;;;;;;;17.18;100.00;100676.72;5015690;28;20538;-74
2023/09/08 05:36:18;;;;;;;7.85;6.45;;;;;;;17.17;100.00;100666.97;5011063;28;20053;-74
2023/09/08 05:38:48;;;;;;;10.35;6.43;;;;;;;17.17;100.00;100664.31;5046309;28;20064;-73
2023/09/08 05:41:17;;;;;;;12.02;6.50;;;;;;;17.23;100.00;100676.41;5016358;28;20056;-74
2023/09/08 05:43:46;;;;;;;7.70;6.32;;;;;;;17.22;100.00;100672.88;5032000;28;20042;-74
2023/09/08 05:46:16;;;;;;;10.00;6.50;;;;;;;17.22;100.00;100678.22;5018924;28;20108;-73
2023/09/08 05:48:45;;;;;;;8.05;6.30;;;;;;;17.21;100.00;100667.63;5030749;28;20468;-75
2023/09/08 05:51:13;;;;;;;7.15;6.32;;;;;;;17.29;100.00;100673.31;5027037;28;20050;-73
2023/09/08 05:53:42;;;;;;;9.20;6.20;;;;;;;17.21;100.00;100659.59;5034027;28;20045;-74
2023/09/08 05:56:11;;;;;;;8.35;6.20;;;;;;;17.39;100.00;100683.25;5012727;28;20045;-73
2023/09/08 05:58:43;;;;;;;10.13;7.38;;;;;;;17.43;100.00;100675.88;5031108;28;20502;-73
2023/09/08 06:01:12;;;;;;;7.82;6.32;;;;;;;17.45;100.00;100679.28;5009011;28;21175;-74
2023/09/08 06:03:42;;;;;;;9.45;6.40;;;;;;;17.49;100.00;100686.13;5016770;28;20099;-74
2023/09/08 06:06:13;;;;;;;9.40;6.90;;;;;;;17.53;100.00;100691.16;5020049;28;20050;-76
2023/09/08 06:08:45;;;;;;;7.43;6.60;;;;;;;17.61;100.00;100689.78;5022709;28;20050;-76
2023/09/08 06:11:14;;;;;;;10.65;6.43;;;;;;;17.67;100.00;100678.63;5037399;28;20455;-76
2023/09/08 06:13:43;;;;;;;9.57;7.07;;;;;;;17.72;100.00;100679.16;5027471;28;20069;-75
2023/09/08 06:16:13;;;;;;;9.20;6.10;;;;;;;17.83;100.00;100677.41;5018946;28;20041;-75
2023/09/08 06:18:44;;;;;;;7.85;6.60;;;;;;;17.94;100.00;100667.75;5028264;28;20049;-76
2023/09/08 06:21:16;;;;;;;9.27;6.35;;;;;;;17.97;100.00;100664.84;5012534;28;20049;-76
2023/09/08 06:23:57;;;;;;;9.85;6.18;;;;;;;18.03;100.00;100667.94;5039266;28;20049;-76
2023/09/08 06:26:27;;;;;;;10.98;6.72;;;;;;;18.07;100.00;100668.56;5035488;28;20068;-75
2023/09/08 06:28:55;;;;;;;8.95;6.78;;;;;;;18.21;100.00;100671.06;5038125;28;20612;-77
2023/09/08 06:31:24;;;;;;;9.77;6.60;;;;;;;18.22;100.00;100678.16;5043478;28;20144;-76
2023/09/08 06:33:59;;;;;;;8.65;6.40;;;;;;;18.22;100.00;100673.66;5023645;28;20457;-76
2023/09/08 06:36:30;;;;;;;9.50;6.18;;;;;;;18.38;100.00;100684.09;5017958;28;20065;-76
2023/09/08 06:39:01;;;;;;;7.80;6.20;;;;;;;18.51;100.00;100676.81;5023382;28;20041;-75
2023/09/08 06:41:32;;;;;;;6.95;5.95;;;;;;;18.64;100.00;100678.59;5028669;28;20476;-75
2023/09/08 06:44:06;;;;;;;7.28;6.25;;;;;;;18.81;100.00;100675.50;5022697;28;20038;-77
2023/09/08 06:46:35;;;;;;;7.18;6.07;;;;;;;18.95;100.00;100677.97;5014605;28;20037;-76
2023/09/08 06:49:05;;;;;;;6.95;5.55;;;;;;;19.08;100.00;100677.84;5022504;28;20095;-76
2023/09/08 06:51:33;;;;;;;7.77;6.03;;;;;;;19.25;100.00;100670.19;5026088;28;20418;-76
2023/09/08 06:54:01;;;;;;;9.20;6.68;;;;;;;19.52;100.00;100663.63;5027868;28;20068;-78
2023/09/08 06:56:37;;;;;;;11.98;6.15;;;;;;;19.92;100.00;100670.22;5013823;28;20045;-74
2023/09/08 06:59:07;;;;;;;7.63;6.05;;;;;;;20.23;100.00;100675.75;5027803;28;20092;-76
2023/09/08 07:01:36;;;;;;;9.63;6.55;;;;;;;20.53;100.00;100678.59;5002222;28;20053;-76
2023/09/08 07:04:10;;;;;;;7.25;6.07;;;;;;;20.81;100.00;100674.44;5017106;28;20057;-76
2023/09/08 07:06:41;;;;;;;9.95;6.20;;;;;;;21.13;100.00;100677.03;5014345;28;20049;-76
2023/09/08 07:09:10;;;;;;;8.85;5.75;;;;;;;21.34;100.00;100669.84;5006243;28;20037;-76
2023/09/08 07:11:39;;;;;;;6.25;5.38;;;;;;;21.54;100.00;100669.94;5007008;28;20341;-76
2023/09/08 07:14:08;;;;;;;7.32;5.95;;;;;;;21.67;100.00;100665.16;5026374;28;20474;-77
2023/09/08 07:16:37;;;;;;;11.95;5.65;;;;;;;21.90;100.00;100677.41;5014556;28;20042;-76
2023/09/08 07:19:07;;;;;;;9.80;5.53;;;;;;;22.11;100.00;100663.88;5025072;28;20069;-77
2023/09/08 07:21:37;;;;;;;13.02;5.75;;;;;;;22.22;100.00;100674.53;5000576;28;20041;-77
2023/09/08 07:24:07;;;;;;;10.68;5.75;;;;;;;22.29;100.00;100669.44;5026879;28;20046;-77
2023/09/08 07:26:35;;;;;;;9.65;5.32;;;;;;;22.29;100.00;100664.91;5007784;28;20042;-76
2023/09/08 07:29:04;;;;;;;11.38;5.63;;;;;;;22.42;100.00;100670.00;5024981;28;20162;-77
2023/09/08 07:31:38;;;;;;;9.02;5.57;;;;;;;22.61;100.00;100672.72;5036658;28;20718;-78
2023/09/08 07:34:06;;;;;;;8.00;5.70;;;;;;;22.64;100.00;100664.34;5017479;28;20053;-77
2023/09/08 07:36:38;;;;;;;6.85;5.15;;;;;;;22.79;100.00;100664.78;5029261;28;20073;-77
2023/09/08 07:39:07;;;;;;;9.40;5.32;;;;;;;22.98;100.00;100661.22;5021729;28;20077;-78
2023/09/08 07:41:40;;;;;;;8.45;5.63;;;;;;;23.21;99.44;100670.66;5023504;28;20064;-77
2023/09/08 07:44:15;;;;;;;9.15;4.78;;;;;;;23.44;93.64;100657.66;5023413;28;20152;-77
2023/09/08 07:46:48;;;;;;;7.60;5.13;;;;;;;23.60;90.57;100647.09;5029144;28;20063;-78
2023/09/08 07:49:18;;;;;;;;;;;;;;;23.83;91.38;100668.31;5025151;28;20045;-75
2023/09/08 07:51:51;;;;;;;6.97;5.20;;;;;;;23.94;87.94;100663.53;5019106;28;19980;-78
2023/09/08 07:54:20;;;;;;;6.80;4.97;;;;;;;24.13;92.58;100654.47;5028623;28;20042;-75
2023/09/08 07:56:56;;;;;;;7.40;4.85;;;;;;;24.29;90.41;100660.06;5032932;28;20050;-77
2023/09/08 07:59:25;;;;;;;7.22;5.10;;;;;;;24.64;85.38;100671.91;5032763;28;20132;-76
2023/09/08 08:01:54;;;;;;;6.33;4.97;;;;;;;24.92;79.54;100650.97;5012850;28;20065;-77
2023/09/08 08:04:22;;;;;;;7.63;5.30;;;;;;;25.00;73.66;100657.34;5038662;28;20449;-76
2023/09/08 08:06:53;;;;;;;6.68;5.38;;;;;;;25.25;69.47;100652.91;5027086;28;20073;-76
2023/09/08 08:09:24;;;;;;;7.68;5.20;;;;;;;25.58;69.52;100664.78;5038004;28;20053;-77
2023/09/08 08:11:52;;;;;;;7.38;5.30;;;;;;;25.62;66.55;100646.38;5003457;28;20411;-76
2023/09/08 08:14:21;;;;;;;6.65;5.35;;;;;;;25.66;63.26;100664.00;5040782;28;20064;-77
2023/09/08 08:16:55;;;;;;;10.15;4.97;;;;;;;25.60;63.29;100661.91;5009699;28;20045;-76
2023/09/08 08:20:09;;;;;;;5.57;5.00;;;;;;;25.46;63.51;100666.94;5020961;28;20045;-76
2023/09/08 08:22:39;;;;;;;;;;;;;;;25.41;62.11;100661.16;5018067;28;20060;-76
2023/09/08 08:25:11;;;;;;;6.18;5.47;;;;;;;25.56;62.05;100666.81;5023147;28;19979;-77
2023/09/08 08:27:40;;;;;;;6.13;5.15;;;;;;;25.73;59.58;100656.91;5023104;28;20391;-77
2023/09/08 08:30:11;;;;;;;9.13;5.20;;;;;;;25.94;58.38;100662.78;5019871;28;20148;-76
2023/09/08 08:32:42;;;;;;;7.40;5.22;;;;;;;26.15;56.79;100667.72;5022061;28;20100;-77
2023/09/08 08:35:12;;;;;;;7.63;5.10;;;;;;;26.35;55.66;100657.47;5021574;28;20053;-77
2023/09/08 08:37:46;;;;;;;7.00;5.53;;;;;;;26.68;54.38;100655.63;5024501;28;20053;-78
2023/09/08 08:40:18;;;;;;;6.03;4.78;;;;;;;27.17;52.60;100661.91;5014340;28;20061;-77
2023/09/08 08:42:46;;;;;;;8.90;5.55;;;;;;;27.38;50.74;100653.19;5037458;28;20038;-77
2023/09/08 08:45:19;;;;;;;7.65;5.63;;;;;;;27.00;51.73;100642.06;4996833;28;20064;-76
2023/09/08 08:47:51;;;;;;;10.40;5.80;;;;;;;26.35;52.86;100642.03;5027421;28;20099;-77
2023/09/08 08:50:20;;;;;;;7.28;5.50;;;;;;;25.78;56.52;100643.72;5026379;28;20580;-76
2023/09/08 08:52:50;;;;;;;8.82;5.63;;;;;;;25.40;59.62;100650.47;5020004;28;20100;-75
2023/09/08 08:55:18;;;;;;;10.75;5.78;;;;;;;24.96;62.08;100626.16;5039284;28;20505;-76
2023/09/08 08:57:47;;;;;;;6.85;5.85;;;;;;;24.96;63.81;100649.69;5026326;28;20042;-76
2023/09/08 09:00:21;;;;;;;7.47;5.38;;;;;;;24.88;65.38;100646.88;5021284;28;20143;-78
2023/09/08 09:03:05;;;;;;;8.30;5.60;;;;;;;24.61;65.35;100613.50;5034599;28;20141;-76
2023/09/08 09:05:48;;;;;;;6.97;5.72;;;;;;;24.59;65.38;100620.91;5003628;28;20050;-77
2023/09/08 09:08:19;;;;;;;5.65;5.05;;;;;;;24.68;65.20;100655.19;5023243;28;20053;-77
2023/09/08 09:10:47;;;;;;;7.05;5.07;;;;;;;24.63;66.12;100645.84;5015993;28;20046;-76
2023/09/08 09:13:15;;;;;;;7.30;5.03;;;;;;;24.69;66.73;100646.06;5036700;28;20053;-77
2023/09/08 09:15:44;;;;;;;8.20;5.55;;;;;;;24.71;65.31;100654.88;5016155;28;20096;-77
2023/09/08 09:18:19;;;;;;;6.90;5.25;;;;;;;24.53;64.81;100624.28;5029094;28;20046;-77
2023/09/08 09:20:55;;;;;;;6.30;5.35;;;;;;;24.76;65.17;100651.69;5018173;28;20422;-76
2023/09/08 09:23:38;;;;;;;9.15;5.38;;;;;;;24.81;65.91;100650.22;4998630;28;20041;-77
2023/09/08 09:26:06;;;;;;;8.15;5.20;;;;;;;24.88;65.36;100645.00;5039258;28;20037;-79
2023/09/08 09:28:49;;;;;;;10.15;5.53;;;;;;;24.97;64.89;100632.41;5023571;28;20045;-80
2023/09/08 09:31:26;;;;;;;5.97;5.38;;;;;;;25.13;64.64;100652.34;5015735;28;20045;-77
2023/09/08 09:34:05;;;;;;;7.97;5.03;;;;;;;25.17;62.83;100639.34;5019866;28;20049;-75
2023/09/08 09:36:33;;;;;;;6.57;5.30;;;;;;;25.22;61.78;100641.53;5042901;28;20084;-77
2023/09/08 09:39:03;;;;;;;6.70;5.35;;;;;;;25.18;61.18;100636.44;5041975;28;20038;-76
2023/09/08 09:41:32;;;;;;;6.28;5.25;;;;;;;25.30;61.53;100647.03;5017793;28;20147;-76
2023/09/08 09:44:03;;;;;;;6.05;5.28;;;;;;;25.37;61.01;100642.66;5029327;28;20053;-76
2023/09/08 09:46:31;;;;;;;;;;;;;;;25.53;59.54;100645.44;5010380;28;20065;-77
2023/09/08 09:49:02;;;;;;;6.43;4.80;;;;;;;25.64;57.24;100644.34;5055698;28;19949;-77
2023/09/08 09:51:41;;;;;;;9.07;5.18;;;;;;;25.72;57.17;100636.22;5023898;28;20065;-77
2023/09/08 09:54:12;;;;;;;6.18;5.40;;;;;;;25.83;56.70;100635.91;5027706;28;20042;-79
2023/09/08 09:56:43;;;;;;;6.22;5.28;;;;;;;25.91;55.91;100633.25;5024329;28;20133;-77
2023/09/08 09:59:15;;;;;;;6.43;5.18;;;;;;;26.04;56.26;100638.19;5010487;28;20042;-77
2023/09/08 10:01:46;;;;;;;6.22;4.72;;;;;;;26.11;54.76;100634.66;5013043;28;20042;-78
2023/09/08 10:04:15;;;;;;;5.50;4.85;;;;;;;26.15;53.04;100633.28;5029285;28;20065;-76
2023/09/08 10:06:47;;;;;;;6.05;5.30;;;;;;;26.20;52.88;100639.09;5012667;28;20045;-77
2023/09/08 10:09:19;;;;;;;6.70;4.82;;;;;;;26.27;53.82;100636.56;5017673;28;20625;-77
2023/09/08 10:11:49;;;;;;;7.32;5.07;;;;;;;26.34;52.09;100629.47;5015649;28;20042;-76
2023/09/08 10:14:19;;;;;;;6.53;5.10;;;;;;;26.38;53.12;100632.69;5015204;28;20050;-77
2023/09/08 10:16:52;;;;;;;5.53;5.03;;;;;;;26.42;52.49;100620.50;5003848;28;20049;-77
2023/09/08 10:19:23;;;;;;;6.32;4.65;;;;;;;26.49;52.16;100621.50;5009813;28;20116;-76
2023/09/08 10:21:55;;;;;;;5.88;4.80;;;;;;;26.61;51.31;100614.69;4997684;28;20160;-76
2023/09/08 10:24:35;;;;;;;8.88;5.05;;;;;;;26.70;51.09;100618.28;5025035;28;20060;-76
2023/09/08 10:27:08;;;;;;;4.95;4.45;;;;;;;26.76;51.70;100623.84;5030565;28;20042;-77
2023/09/08 10:29:36;;;;;;;6.20;4.78;;;;;;;26.78;50.48;100601.94;5016513;28;20080;-77
2023/09/08 10:32:09;;;;;;;6.22;4.63;;;;;;;26.86;50.61;100610.13;5023778;28;20046;-77
2023/09/08 10:34:40;;;;;;;7.07;5.20;;;;;;;26.97;50.46;100608.94;5026803;28;20042;-75
2023/09/08 10:37:20;;;;;;;6.90;5.30;;;;;;;27.09;49.33;100610.25;5023122;28;20060;-75
2023/09/08 10:39:50;;;;;;;;;;;;;;;27.10;49.09;100614.66;5024780;28;20049;-76
2023/09/08 10:42:24;;;;;;;7.75;4.93;;;;;;;27.08;49.10;100605.84;5025632;28;19925;-76
2023/09/08 10:45:04;;;;;;;6.43;4.97;;;;;;;27.13;48.25;100603.47;5029792;28;20046;-75
2023/09/08 10:47:36;;;;;;;6.72;5.18;;;;;;;27.15;49.08;100604.13;5008145;28;20064;-77
2023/09/08 10:50:06;;;;;;;8.20;5.07;;;;;;;27.13;49.17;100595.31;5020138;28;20138;-77
2023/09/08 10:52:35;;;;;;;;;;;;;;;27.24;48.76;100595.75;5030410;28;20048;-76
2023/09/08 10:55:07;;;;;;;6.40;5.07;;;;;;;27.31;48.06;100593.22;5032420;28;19925;-76
2023/09/08 10:57:36;;;;;;;5.57;4.90;;;;;;;27.39;48.74;100597.78;5038437;28;20052;-76
2023/09/08 11:00:11;;;;;;;5.97;5.20;;;;;;;27.41;48.60;100584.84;5032240;28;20033;-75
2023/09/08 11:02:42;;;;;;;6.10;5.38;;;;;;;27.58;48.62;100589.22;5042691;28;20033;-75
2023/09/08 11:05:13;;;;;;;6.50;5.25;;;;;;;27.69;48.15;100593.44;5059815;28;20034;-75
2023/09/08 11:07:42;;;;;;;5.72;5.05;;;;;;;27.69;47.99;100598.88;5033992;28;20049;-76
2023/09/08 11:10:15;;;;;;;6.45;5.07;;;;;;;27.74;47.95;100591.84;5015998;28;20103;-76
2023/09/08 11:12:45;;;;;;;6.03;4.88;;;;;;;27.76;48.52;100580.78;5022342;28;20037;-75
2023/09/08 11:15:18;;;;;;;5.40;4.90;;;;;;;27.85;47.27;100593.34;5015032;28;20072;-75
2023/09/08 11:17:50;;;;;;;8.27;5.57;;;;;;;27.79;48.13;100566.84;5017526;28;20244;-76
2023/09/08 11:20:28;;;;;;;6.95;5.40;;;;;;;27.93;48.60;100575.06;5029601;28;20041;-77
2023/09/08 11:22:56;;;;;;;6.60;5.55;;;;;;;27.95;47.98;100572.19;5031257;28;20042;-76
2023/09/08 11:25:25;;;;;;;10.63;5.57;;;;;;;28.04;47.48;100568.34;5012660;28;20683;-77
2023/09/08 11:27:53;;;;;;;9.48;5.88;;;;;;;28.13;47.91;100569.16;5028053;28;20050;-75
2023/09/08 11:30:21;;;;;;;6.68;5.47;;;;;;;28.23;48.07;100570.63;5030765;28;20057;-76
2023/09/08 11:32:50;;;;;;;7.18;5.38;;;;;;;28.28;47.89;100570.94;5018374;28;20056;-76
2023/09/08 11:35:20;;;;;;;5.95;4.82;;;;;;;28.35;46.81;100564.75;5018886;28;20148;-77